KLCI/LCI METAR and TAF weather

Enter ICAO airport designator
Station Type Date Time Source
KLCI METAR 2019/11/13 01:56 UTC NOAA

KLCI 130156Z AUTO 27009G16KT 9SM FEW028 BKN036 M08/M12 A2994 RMK AO2 SNB45E56 SLP148 P0000 T10831117 FZRANO


Station Type Date Time Source
KLCI Decoded METAR 2019/11/13 01:56 UTC NOAA

Laconia, Laconia Municipal Airport, NH, United States (KLCI) 43-34N 071-25W
Nov 12, 2019 - 08:56 PM EST / 2019.11.13 0156 UTC
Wind: from the W (270 degrees) at 10 MPH (9 KT) gusting to 18 MPH (16 KT):0
Visibility: 9 mile(s):0
Sky conditions: mostly cloudy
Precipitation last hour: A trace
Temperature: 17.1 F (-8.3 C)
Windchill: 5 F (-15 C):1
Dew Point: 10.9 F (-11.7 C)
Relative Humidity: 76%
Pressure (altimeter): 29.94 in. Hg (1013 hPa)
ob: KLCI 130156Z AUTO 27009G16KT 9SM FEW028 BKN036 M08/M12 A2994 RMK AO2 SNB45E56 SLP148 P0000 T10831117 FZRANO
cycle: 2

Station Type Date Time Source
KLCI TAF UTC NOAA

Error!

Example: see airport list